createdAt,value
2023-08-20T00:02:05.773Z,13.18
2023-08-20T00:04:40.696Z,12.60
2023-08-20T00:07:11.512Z,11.87
2023-08-20T00:09:44.225Z,12.38
2023-08-20T00:12:14.037Z,12.77
2023-08-20T00:14:58.012Z,12.93
2023-08-20T00:17:28.852Z,11.65
2023-08-20T00:20:02.610Z,11.52
2023-08-20T00:22:34.929Z,12.43
2023-08-20T00:25:05.634Z,11.48
2023-08-20T00:27:35.808Z,13.35
2023-08-20T00:30:06.953Z,13.38
2023-08-20T00:32:36.966Z,14.05
2023-08-20T00:35:10.711Z,13.77
2023-08-20T00:37:40.702Z,14.15
2023-08-20T00:40:11.624Z,14.70
2023-08-20T00:42:41.625Z,14.95
2023-08-20T00:45:12.426Z,14.50
2023-08-20T00:47:42.612Z,14.30
2023-08-20T00:50:15.709Z,14.63
2023-08-20T00:52:45.759Z,14.50
2023-08-20T00:55:16.610Z,15.93
2023-08-20T00:57:46.764Z,15.65
2023-08-20T01:00:17.816Z,16.40
2023-08-20T01:02:48.582Z,16.00
2023-08-20T01:05:23.616Z,15.30
2023-08-20T01:08:30.470Z,15.67
2023-08-20T01:11:05.484Z,17.35
2023-08-20T01:13:35.408Z,15.95
2023-08-20T01:16:06.266Z,17.92
2023-08-20T01:18:36.240Z,17.13
2023-08-20T01:21:27.830Z,18.10
2023-08-20T01:24:19.390Z,18.02
2023-08-20T01:27:11.897Z,19.13
2023-08-20T01:29:44.544Z,19.00
2023-08-20T01:32:15.933Z,19.08
2023-08-20T01:34:46.963Z,19.20
2023-08-20T01:37:16.733Z,18.55
2023-08-20T01:39:46.457Z,19.25
2023-08-20T01:42:16.558Z,20.08
2023-08-20T01:44:48.913Z,20.38
2023-08-20T01:47:18.674Z,19.10
2023-08-20T01:49:48.374Z,17.15
2023-08-20T01:52:18.077Z,18.88
2023-08-20T01:54:47.951Z,18.58
2023-08-20T01:57:17.801Z,19.55
2023-08-20T01:59:51.499Z,20.15
2023-08-20T02:02:22.708Z,21.00
2023-08-20T02:04:52.736Z,18.48
2023-08-20T02:07:22.489Z,19.88
2023-08-20T02:09:52.371Z,18.38
2023-08-20T02:12:23.130Z,17.42
2023-08-20T02:14:55.598Z,17.17
2023-08-20T02:17:25.390Z,17.33
2023-08-20T02:19:55.226Z,17.27
2023-08-20T02:22:25.503Z,18.17
2023-08-20T02:24:55.309Z,15.85
2023-08-20T02:27:25.120Z,17.42
2023-08-20T02:29:57.507Z,16.52
2023-08-20T02:32:27.320Z,18.52
2023-08-20T02:34:57.710Z,18.60
2023-08-20T02:37:27.446Z,19.23
2023-08-20T02:39:57.328Z,16.85
2023-08-20T02:42:27.061Z,17.15
2023-08-20T02:44:59.450Z,18.67
2023-08-20T02:47:29.696Z,17.95
2023-08-20T02:49:59.556Z,17.27
2023-08-20T02:52:29.602Z,15.98
2023-08-20T02:55:01.460Z,16.33
2023-08-20T02:57:31.335Z,15.00
2023-08-20T03:00:04.325Z,16.52
2023-08-20T03:02:35.346Z,16.25
2023-08-20T03:05:07.221Z,16.95
2023-08-20T03:07:37.169Z,16.95
2023-08-20T03:10:07.679Z,16.23
2023-08-20T03:12:37.516Z,15.43
2023-08-20T03:15:13.518Z,15.23
2023-08-20T03:17:44.348Z,14.80
2023-08-20T03:20:15.254Z,13.43
2023-08-20T03:22:45.972Z,14.13
2023-08-20T03:25:15.773Z,14.73
2023-08-20T03:27:46.041Z,14.43
2023-08-20T03:30:18.712Z,15.63
2023-08-20T03:32:48.724Z,15.75
2023-08-20T03:35:19.872Z,16.63
2023-08-20T03:37:49.591Z,16.52
2023-08-20T03:40:19.733Z,15.15
2023-08-20T03:42:49.528Z,15.85
2023-08-20T03:45:21.980Z,16.10
2023-08-20T03:47:51.887Z,17.70
2023-08-20T03:50:24.325Z,17.60
2023-08-20T03:52:57.791Z,16.63
2023-08-20T03:55:28.232Z,17.00
2023-08-20T03:57:58.017Z,19.35
2023-08-20T04:00:32.528Z,19.25
2023-08-20T04:03:07.343Z,18.03
2023-08-20T04:05:40.602Z,17.20
2023-08-20T04:08:10.942Z,16.17
2023-08-20T04:10:48.638Z,18.70
2023-08-20T04:13:18.726Z,15.68
2023-08-20T04:15:51.051Z,14.30
2023-08-20T04:18:23.397Z,13.82
2023-08-20T04:20:54.505Z,14.30
2023-08-20T04:23:24.514Z,13.82
2023-08-20T04:25:54.499Z,13.10
2023-08-20T04:28:24.246Z,13.27
2023-08-20T04:30:59.346Z,12.57
2023-08-20T04:33:29.178Z,11.48
2023-08-20T04:35:58.867Z,11.32
2023-08-20T04:38:28.747Z,11.05
2023-08-20T04:40:58.460Z,12.00
2023-08-20T04:43:28.152Z,11.18
2023-08-20T04:46:00.459Z,11.18
2023-08-20T04:48:31.422Z,12.60
2023-08-20T04:51:02.116Z,12.00
2023-08-20T04:53:31.868Z,12.60
2023-08-20T04:56:02.377Z,12.00
2023-08-20T04:58:32.138Z,12.15
2023-08-20T05:01:05.169Z,12.13
2023-08-20T05:03:35.199Z,12.30
2023-08-20T05:06:08.379Z,12.35
2023-08-20T05:08:38.065Z,13.13
2023-08-20T05:11:07.775Z,12.07
2023-08-20T05:13:37.642Z,13.13
2023-08-20T05:16:10.034Z,12.88
2023-08-20T05:18:39.690Z,12.15
2023-08-20T05:21:12.892Z,12.43
2023-08-20T05:23:42.765Z,11.90
2023-08-20T05:26:12.529Z,12.85
2023-08-20T05:28:42.266Z,11.88
2023-08-20T05:31:14.834Z,11.43
2023-08-20T05:33:44.625Z,11.68
2023-08-20T05:36:16.654Z,11.75
2023-08-20T05:38:46.551Z,11.23
2023-08-20T05:41:16.282Z,11.48
2023-08-20T05:43:46.128Z,11.32
2023-08-20T05:46:18.457Z,11.75
2023-08-20T05:48:48.173Z,12.52
2023-08-20T05:51:18.181Z,12.30
2023-08-20T05:53:50.769Z,12.10
2023-08-20T05:56:20.511Z,12.07
2023-08-20T05:58:50.205Z,11.40
2023-08-20T06:01:22.497Z,13.65
2023-08-20T06:03:52.214Z,12.68
2023-08-20T06:06:22.102Z,12.98
2023-08-20T06:09:06.603Z,11.77
2023-08-20T06:11:37.921Z,11.07
2023-08-20T06:14:07.716Z,10.82
2023-08-20T06:16:40.178Z,10.88
2023-08-20T06:19:09.892Z,10.98
2023-08-20T06:21:39.599Z,11.65
2023-08-20T06:24:10.230Z,11.48
2023-08-20T06:26:39.922Z,10.35
2023-08-20T06:29:09.801Z,10.75
2023-08-20T06:31:42.266Z,10.73
2023-08-20T06:34:12.060Z,9.80
2023-08-20T06:36:41.855Z,10.38
2023-08-20T06:39:11.637Z,10.23
2023-08-20T06:41:41.568Z,9.50
2023-08-20T06:44:11.304Z,9.27
2023-08-20T06:46:44.502Z,9.73
2023-08-20T06:49:14.310Z,9.15
2023-08-20T06:51:44.000Z,8.70
2023-08-20T06:54:13.746Z,8.90
2023-08-20T06:56:43.505Z,8.82
2023-08-20T06:59:13.554Z,10.07
2023-08-20T07:01:46.102Z,9.30
2023-08-20T07:04:16.488Z,9.10
2023-08-20T07:06:46.387Z,8.68
2023-08-20T07:09:17.450Z,8.48
2023-08-20T07:11:48.713Z,8.88
2023-08-20T07:14:19.445Z,8.75
2023-08-20T07:16:51.712Z,8.77
2023-08-20T07:19:21.709Z,8.48
2023-08-20T07:21:51.361Z,8.50
2023-08-20T07:24:26.668Z,8.82
2023-08-20T07:27:01.810Z,8.70
2023-08-20T07:29:31.745Z,8.52
2023-08-20T07:32:04.675Z,8.50
2023-08-20T07:34:35.242Z,8.80
2023-08-20T07:37:06.375Z,8.82
2023-08-20T07:39:36.115Z,8.43
2023-08-20T07:42:05.905Z,7.68
2023-08-20T07:44:35.663Z,8.55
2023-08-20T07:47:08.266Z,8.60
2023-08-20T07:49:38.099Z,8.52
2023-08-20T07:52:08.120Z,8.82
2023-08-20T07:54:40.697Z,8.80
2023-08-20T07:57:10.445Z,8.48
2023-08-20T07:59:40.326Z,7.80
2023-08-20T08:02:13.046Z,7.95
2023-08-20T08:04:44.175Z,8.13
2023-08-20T08:07:15.600Z,7.85
2023-08-20T08:09:48.351Z,7.63
2023-08-20T08:12:18.106Z,7.97
2023-08-20T08:14:47.802Z,7.47
2023-08-20T08:17:20.169Z,7.28
2023-08-20T08:19:51.085Z,7.60
2023-08-20T08:22:22.028Z,7.13
2023-08-20T08:24:51.735Z,7.20
2023-08-20T08:27:21.418Z,7.25
2023-08-20T08:29:51.176Z,7.10
2023-08-20T08:32:23.459Z,7.22
2023-08-20T08:34:53.272Z,7.35
2023-08-20T08:37:22.950Z,7.13
2023-08-20T08:39:52.869Z,7.10
2023-08-20T08:42:26.302Z,6.47
2023-08-20T08:44:56.509Z,6.50
2023-08-20T08:47:30.401Z,6.60
2023-08-20T08:50:00.869Z,6.57
2023-08-20T08:52:31.089Z,6.20
2023-08-20T08:55:01.127Z,6.40
2023-08-20T08:57:30.905Z,7.03
2023-08-20T09:00:00.858Z,7.13
2023-08-20T09:02:33.290Z,6.07
2023-08-20T09:05:04.277Z,7.25
2023-08-20T09:07:36.848Z,6.63
2023-08-20T09:10:09.086Z,6.85
2023-08-20T09:12:39.919Z,7.00
2023-08-20T09:15:14.785Z,7.10
2023-08-20T09:20:19.519Z,7.55
2023-08-20T09:22:53.016Z,7.68
2023-08-20T09:25:22.923Z,7.35
2023-08-20T09:27:52.648Z,7.22
2023-08-20T09:30:23.267Z,7.25
2023-08-20T09:33:12.615Z,7.22
2023-08-20T09:35:43.661Z,7.75
2023-08-20T09:38:13.370Z,7.13
2023-08-20T09:40:43.344Z,6.97
2023-08-20T09:43:15.758Z,6.88
2023-08-20T09:45:47.543Z,6.38
2023-08-20T09:48:23.723Z,6.85
2023-08-20T09:50:55.980Z,6.75
2023-08-20T09:53:30.766Z,6.45
2023-08-20T09:58:35.906Z,6.50
2023-08-20T10:01:06.373Z,6.55
2023-08-20T10:03:39.018Z,6.75
2023-08-20T10:06:10.558Z,6.55
2023-08-20T10:08:41.121Z,6.50
2023-08-20T10:11:10.802Z,6.85
2023-08-20T10:13:41.154Z,6.78
2023-08-20T10:16:11.130Z,6.38
2023-08-20T10:18:44.076Z,6.40
2023-08-20T10:21:13.851Z,6.20
2023-08-20T10:23:45.572Z,6.65
2023-08-20T10:26:15.638Z,6.78
2023-08-20T10:28:45.777Z,6.65
2023-08-20T10:31:17.410Z,6.43
2023-08-20T10:33:59.030Z,6.82
2023-08-20T10:36:30.448Z,5.95
2023-08-20T10:39:00.464Z,6.43
2023-08-20T10:41:34.715Z,6.50
2023-08-20T10:44:04.526Z,6.70
2023-08-20T10:46:38.034Z,6.50
2023-08-20T10:49:10.602Z,6.80
2023-08-20T10:51:42.434Z,6.32
2023-08-20T10:54:13.693Z,6.43
2023-08-20T10:56:49.135Z,6.82
2023-08-20T10:59:20.284Z,6.68
2023-08-20T11:01:51.883Z,6.90
2023-08-20T11:04:29.119Z,7.20
2023-08-20T11:07:02.040Z,6.63
2023-08-20T11:09:33.893Z,6.80
2023-08-20T11:12:03.749Z,7.07
2023-08-20T11:14:33.514Z,6.78
2023-08-20T11:17:03.543Z,7.35
2023-08-20T11:19:36.121Z,7.00
2023-08-20T11:22:06.041Z,6.68
2023-08-20T11:24:37.663Z,7.00
2023-08-20T11:27:07.506Z,6.45
2023-08-20T11:29:37.908Z,6.93
2023-08-20T11:32:07.662Z,7.03
2023-08-20T11:34:40.351Z,6.50
2023-08-20T11:37:10.481Z,8.32
2023-08-20T11:39:40.976Z,7.40
2023-08-20T11:42:11.104Z,7.30
2023-08-20T11:44:47.565Z,7.40
2023-08-20T11:47:20.603Z,7.05
2023-08-20T11:50:06.513Z,6.57
2023-08-20T11:52:36.638Z,6.90
2023-08-20T11:55:07.509Z,6.75
2023-08-20T11:57:37.444Z,6.93
2023-08-20T12:00:10.254Z,6.97
2023-08-20T12:02:41.015Z,6.85
2023-08-20T12:05:15.580Z,6.97
2023-08-20T12:07:45.236Z,7.28
2023-08-20T12:10:25.539Z,7.30
2023-08-20T12:12:55.554Z,6.60
2023-08-20T12:15:28.012Z,7.65
2023-08-20T12:18:06.585Z,7.00
2023-08-20T12:20:39.844Z,7.90
2023-08-20T12:23:10.918Z,6.97
2023-08-20T12:25:40.764Z,7.20
2023-08-20T12:28:11.504Z,7.70
2023-08-20T12:30:41.968Z,7.82
2023-08-20T12:33:12.386Z,7.43
2023-08-20T12:35:44.691Z,8.02
2023-08-20T12:38:14.413Z,6.65
2023-08-20T12:40:44.181Z,6.93
2023-08-20T12:43:13.901Z,6.47
2023-08-20T12:45:43.662Z,7.85
2023-08-20T12:48:13.699Z,7.07
2023-08-20T12:50:46.374Z,6.88
2023-08-20T12:53:16.458Z,6.30
2023-08-20T12:55:48.131Z,6.60
2023-08-20T12:58:17.860Z,7.03
2023-08-20T13:00:47.661Z,7.00
2023-08-20T13:03:19.094Z,6.70
2023-08-20T13:05:52.484Z,7.05
2023-08-20T13:08:22.857Z,7.05
2023-08-20T13:10:57.040Z,6.53
2023-08-20T13:13:28.305Z,6.10
2023-08-20T13:15:58.691Z,6.93
2023-08-20T13:18:29.291Z,6.53
2023-08-20T13:21:01.739Z,6.30
2023-08-20T13:23:31.545Z,6.28
2023-08-20T13:26:03.668Z,6.38
2023-08-20T13:28:33.369Z,6.60
2023-08-20T13:31:03.066Z,6.63
2023-08-20T13:33:32.730Z,5.80
2023-08-20T13:36:05.436Z,5.90
2023-08-20T13:38:35.609Z,6.20
2023-08-20T13:41:05.381Z,6.50
2023-08-20T13:43:35.174Z,6.32
2023-08-20T13:46:05.584Z,6.28
2023-08-20T13:48:35.573Z,5.95
2023-08-20T13:51:12.160Z,6.00
2023-08-20T13:53:42.001Z,5.63
2023-08-20T13:56:11.815Z,5.65
2023-08-20T13:58:41.634Z,5.80
2023-08-20T14:01:12.708Z,6.25
2023-08-20T14:03:42.509Z,6.30
2023-08-20T14:06:14.793Z,6.10
2023-08-20T14:08:45.142Z,6.10
2023-08-20T14:11:14.826Z,6.05
2023-08-20T14:13:44.511Z,5.65
2023-08-20T14:16:14.609Z,5.88
2023-08-20T14:18:44.443Z,5.50
2023-08-20T14:21:16.843Z,5.60
2023-08-20T14:23:46.517Z,5.63
2023-08-20T14:26:16.953Z,5.32
2023-08-20T14:28:46.898Z,5.68
2023-08-20T14:31:17.007Z,6.00
2023-08-20T14:33:46.851Z,5.95
2023-08-20T14:36:19.116Z,5.32
2023-08-20T14:38:48.792Z,5.75
2023-08-20T14:41:18.632Z,5.75
2023-08-20T14:43:48.375Z,5.18
2023-08-20T14:46:19.324Z,5.40
2023-08-20T14:48:49.300Z,5.30
2023-08-20T14:51:21.657Z,5.50
2023-08-20T14:53:51.581Z,5.50
2023-08-20T14:56:25.036Z,5.32
2023-08-20T14:58:54.712Z,5.45
2023-08-20T15:01:24.583Z,5.40
2023-08-20T15:03:54.449Z,5.82
2023-08-20T15:06:28.249Z,5.63
2023-08-20T15:08:57.942Z,5.47
2023-08-20T15:11:29.302Z,5.82
2023-08-20T15:13:59.086Z,5.28
2023-08-20T15:16:28.906Z,5.75
2023-08-20T15:18:58.616Z,5.43
2023-08-20T15:21:30.952Z,5.95
2023-08-20T15:24:00.727Z,6.07
2023-08-20T15:26:32.141Z,5.85
2023-08-20T15:29:04.932Z,5.80
2023-08-20T15:31:34.671Z,5.28
2023-08-20T15:34:04.827Z,5.68
2023-08-20T15:36:37.065Z,5.57
2023-08-20T15:39:06.835Z,5.68
2023-08-20T15:41:36.566Z,5.18
2023-08-20T15:44:06.570Z,5.50
2023-08-20T15:46:36.582Z,5.30
2023-08-20T15:49:06.337Z,5.85
2023-08-20T15:51:39.387Z,5.53
2023-08-20T15:54:09.740Z,5.43
2023-08-20T15:56:42.993Z,5.72
2023-08-20T15:59:12.678Z,6.20
2023-08-20T16:01:42.920Z,5.65
2023-08-20T16:04:12.661Z,5.78
2023-08-20T16:06:44.982Z,5.68
2023-08-20T16:09:14.718Z,6.10
2023-08-20T16:11:44.473Z,6.25
2023-08-20T16:14:14.175Z,6.25
2023-08-20T16:16:44.276Z,6.20
2023-08-20T16:19:14.341Z,6.10
2023-08-20T16:21:46.662Z,6.35
2023-08-20T16:24:16.841Z,6.60
2023-08-20T16:26:46.528Z,6.82
2023-08-20T16:29:16.295Z,6.13
2023-08-20T16:31:46.032Z,6.40
2023-08-20T16:34:16.916Z,7.20
2023-08-20T16:36:49.282Z,6.53
2023-08-20T16:39:19.224Z,6.85
2023-08-20T16:41:48.892Z,6.03
2023-08-20T16:44:21.586Z,6.90
2023-08-20T16:46:51.614Z,7.15
2023-08-20T16:49:21.298Z,7.03
2023-08-20T16:51:53.582Z,7.07
2023-08-20T16:54:23.255Z,6.72
2023-08-20T16:56:52.991Z,6.70
2023-08-20T16:59:22.750Z,7.00
2023-08-20T17:01:53.545Z,7.05
2023-08-20T17:04:23.237Z,6.70
2023-08-20T17:06:55.538Z,6.57
2023-08-20T17:09:25.384Z,6.45
2023-08-20T17:11:55.472Z,6.25
2023-08-20T17:14:25.899Z,6.63
2023-08-20T17:16:56.349Z,6.63
2023-08-20T17:19:26.081Z,7.20
2023-08-20T17:21:58.432Z,6.75
2023-08-20T17:24:28.161Z,6.88
2023-08-20T17:27:00.084Z,7.90
2023-08-20T17:29:31.255Z,6.72
2023-08-20T17:32:00.995Z,6.93
2023-08-20T17:34:32.595Z,7.25
2023-08-20T17:37:05.063Z,7.03
2023-08-20T17:39:34.856Z,6.85
2023-08-20T17:42:04.601Z,7.18
2023-08-20T17:44:34.458Z,7.25
2023-08-20T17:47:04.215Z,7.53
2023-08-20T17:49:33.977Z,6.95
2023-08-20T17:52:06.669Z,6.93
2023-08-20T17:54:36.396Z,6.72
2023-08-20T17:57:06.334Z,6.57
2023-08-20T17:59:36.398Z,8.25
2023-08-20T18:02:06.156Z,7.20
2023-08-20T18:04:36.854Z,6.47
2023-08-20T18:07:09.086Z,7.50
2023-08-20T18:09:39.066Z,8.02
2023-08-20T18:12:12.028Z,8.05
2023-08-20T18:14:41.703Z,7.50
2023-08-20T18:17:11.475Z,7.93
2023-08-20T18:19:41.196Z,8.07
2023-08-20T18:22:13.407Z,7.57
2023-08-20T18:24:43.061Z,7.45
2023-08-20T18:27:13.090Z,8.55
2023-08-20T18:29:43.343Z,7.82
2023-08-20T18:32:13.009Z,7.82
2023-08-20T18:34:42.751Z,8.20
2023-08-20T18:37:15.017Z,7.85
2023-08-20T18:39:46.960Z,8.93
2023-08-20T18:42:16.621Z,11.85
2023-08-20T18:44:46.361Z,14.52
2023-08-20T18:47:16.123Z,13.75
2023-08-20T18:49:47.281Z,11.65
2023-08-20T18:52:19.682Z,12.20
2023-08-20T18:54:49.465Z,11.82
2023-08-20T18:57:19.121Z,12.55
2023-08-20T18:59:49.145Z,10.98
2023-08-20T19:02:18.937Z,11.35
2023-08-20T19:04:51.328Z,11.75
2023-08-20T19:07:23.794Z,11.45
2023-08-20T19:09:53.780Z,11.93
2023-08-20T19:12:23.808Z,10.65
2023-08-20T19:14:53.608Z,11.90
2023-08-20T19:17:23.521Z,14.45
2023-08-20T19:19:53.444Z,12.45
2023-08-20T19:22:26.529Z,12.48
2023-08-20T19:24:56.287Z,11.93
2023-08-20T19:27:25.987Z,12.38
2023-08-20T19:29:55.779Z,14.38
2023-08-20T19:32:25.650Z,16.05
2023-08-20T19:34:55.925Z,11.07
2023-08-20T19:37:30.695Z,10.57
2023-08-20T19:40:02.359Z,11.05
2023-08-20T19:42:32.155Z,11.05
2023-08-20T19:45:02.385Z,10.35
2023-08-20T19:47:32.225Z,10.57
2023-08-20T19:50:01.972Z,9.77
2023-08-20T19:52:34.236Z,9.27
2023-08-20T19:55:04.557Z,11.57
2023-08-20T19:57:34.671Z,13.13
2023-08-20T20:00:06.149Z,13.55
2023-08-20T20:02:36.054Z,10.75
2023-08-20T20:05:09.113Z,11.52
2023-08-20T20:07:42.139Z,11.48
2023-08-20T20:10:13.774Z,8.70
2023-08-20T20:12:45.136Z,8.82
2023-08-20T20:15:15.922Z,8.95
2023-08-20T20:17:45.691Z,9.32
2023-08-20T20:20:17.054Z,9.40
2023-08-20T20:22:49.439Z,8.90
2023-08-20T20:25:19.184Z,9.18
2023-08-20T20:27:50.333Z,9.15
2023-08-20T20:30:20.013Z,9.75
2023-08-20T20:32:50.214Z,9.55
2023-08-20T20:35:21.805Z,8.95
2023-08-20T20:37:54.198Z,9.32
2023-08-20T20:40:23.902Z,9.73
2023-08-20T20:42:53.620Z,9.52
2023-08-20T20:45:23.339Z,8.85
2023-08-20T20:47:53.370Z,9.38
2023-08-20T20:50:23.145Z,9.90
2023-08-20T20:52:55.458Z,9.70
2023-08-20T20:55:25.391Z,9.02
2023-08-20T20:57:55.159Z,9.48
2023-08-20T21:00:25.099Z,9.40
2023-08-20T21:02:54.867Z,9.30
2023-08-20T21:05:24.555Z,9.90
2023-08-20T21:07:56.858Z,8.63
2023-08-20T21:10:26.592Z,9.57
2023-08-20T21:12:56.365Z,9.40
2023-08-20T21:15:26.056Z,9.68
2023-08-20T21:17:56.867Z,10.82
2023-08-20T21:20:26.640Z,9.82
2023-08-20T21:22:58.881Z,10.25
2023-08-20T21:25:29.145Z,9.38
2023-08-20T21:27:58.852Z,9.95
2023-08-20T21:30:28.530Z,9.32
2023-08-20T21:32:58.462Z,9.27
2023-08-20T21:35:28.730Z,9.73
2023-08-20T21:38:01.037Z,9.15
2023-08-20T21:40:31.045Z,9.35
2023-08-20T21:43:00.754Z,9.50
2023-08-20T21:45:30.501Z,9.82
2023-08-20T21:48:00.317Z,9.02
2023-08-20T21:50:30.072Z,9.90
2023-08-20T21:53:02.901Z,9.07
2023-08-20T21:55:33.772Z,9.43
2023-08-20T21:58:03.515Z,9.93
2023-08-20T22:00:33.228Z,9.98
2023-08-20T22:03:03.089Z,10.15
2023-08-20T22:05:32.843Z,10.73
2023-08-20T22:08:06.033Z,10.48
2023-08-20T22:10:35.712Z,9.73
2023-08-20T22:13:05.475Z,10.52
2023-08-20T22:15:35.247Z,11.15
2023-08-20T22:18:05.714Z,10.70
2023-08-20T22:20:36.065Z,10.25
2023-08-20T22:23:08.601Z,10.30
2023-08-20T22:25:38.291Z,10.52
2023-08-20T22:28:08.165Z,11.10
2023-08-20T22:30:39.443Z,11.45
2023-08-20T22:33:09.231Z,10.15
2023-08-20T22:35:39.040Z,11.18
2023-08-20T22:38:13.615Z,10.73
2023-08-20T22:40:43.697Z,11.38
2023-08-20T22:43:13.608Z,11.45
2023-08-20T22:45:43.370Z,11.38
2023-08-20T22:48:13.131Z,10.93
2023-08-20T22:50:42.912Z,10.63
2023-08-20T22:53:15.161Z,11.02
2023-08-20T22:55:44.854Z,10.48
2023-08-20T22:58:14.561Z,11.02
2023-08-20T23:00:44.260Z,11.48
2023-08-20T23:03:13.949Z,12.18
2023-08-20T23:05:43.672Z,11.45
2023-08-20T23:08:15.921Z,11.10
2023-08-20T23:10:45.618Z,11.25
2023-08-20T23:13:15.235Z,11.32
2023-08-20T23:15:45.154Z,10.82
2023-08-20T23:18:14.845Z,10.80
2023-08-20T23:20:44.555Z,12.18
2023-08-20T23:23:16.907Z,11.32
2023-08-20T23:25:47.155Z,11.13
2023-08-20T23:28:16.835Z,11.00
2023-08-20T23:30:47.188Z,11.93
2023-08-20T23:33:17.239Z,11.32
2023-08-20T23:35:47.155Z,11.27
2023-08-20T23:38:19.542Z,11.52
2023-08-20T23:40:49.205Z,11.50
2023-08-20T23:43:18.883Z,11.00
2023-08-20T23:45:48.574Z,11.55
2023-08-20T23:48:19.463Z,10.70
2023-08-20T23:50:49.160Z,10.45
2023-08-20T23:53:23.885Z,11.10
2023-08-20T23:55:53.695Z,10.83
2023-08-20T23:58:23.364Z,11.63
